Time,TemperatureF,DewpointF,PressureIn,WindDirection,WindDirectionDegrees,WindSpeedMPH,WindSpeedGustMPH,Humidity,HourlyPrecipIn,Conditions,Clouds,dailyrainin,SoftwareType,DateUTC
2013-08-28 00:02:00,51.9,44.9,29.34,SSE,158,2.9,5.8,77,0.00,,,0.00,WUHU216HW,2013-08-28 08:02:00,
2013-08-28 00:07:00,52.3,45.3,29.34,SE,135,4.0,4.0,77,0.00,,,0.00,WUHU216HW,2013-08-28 08:07:00,
2013-08-28 00:12:00,52.3,45.3,29.34,ESE,113,5.5,6.2,77,0.00,,,0.00,WUHU216HW,2013-08-28 08:12:00,
2013-08-28 00:17:00,52.5,45.1,29.34,SSE,158,2.4,6.2,76,0.00,,,0.00,WUHU216HW,2013-08-28 08:17:00,
2013-08-28 00:22:00,52.8,45.5,29.34,SE,135,0.0,5.5,76,0.00,,,0.00,WUHU216HW,2013-08-28 08:22:00,
2013-08-28 00:27:00,52.8,45.5,29.34,South,180,0.6,4.6,76,0.00,,,0.00,WUHU216HW,2013-08-28 08:27:00,
2013-08-28 00:32:00,53.0,45.6,29.34,SSE,158,0.8,1.3,76,0.00,,,0.00,WUHU216HW,2013-08-28 08:32:00,
2013-08-28 00:37:00,53.0,45.6,29.34,ESE,113,2.2,4.2,76,0.00,,,0.00,WUHU216HW,2013-08-28 08:37:00,
2013-08-28 00:42:00,53.2,45.8,29.34,SE,135,0.0,5.5,76,0.00,,,0.00,WUHU216HW,2013-08-28 08:42:00,
2013-08-28 00:47:00,53.2,45.8,29.34,South,180,5.1,5.5,76,0.00,,,0.00,WUHU216HW,2013-08-28 08:47:00,
2013-08-28 00:52:00,53.2,45.8,29.34,SE,135,2.4,6.0,76,0.00,,,0.00,WUHU216HW,2013-08-28 08:52:00,
2013-08-28 00:57:00,53.2,45.8,29.34,SSE,158,0.8,7.3,76,0.00,,,0.00,WUHU216HW,2013-08-28 08:57:00,
2013-08-28 01:02:00,53.2,45.8,29.34,SE,135,6.4,7.3,76,0.00,,,0.00,WUHU216HW,2013-08-28 09:02:00,
2013-08-28 01:07:00,53.2,45.8,29.34,SSW,203,3.3,6.4,76,0.00,,,0.00,WUHU216HW,2013-08-28 09:07:00,
2013-08-28 01:12:00,53.2,45.8,29.34,South,180,0.4,6.4,76,0.00,,,0.00,WUHU216HW,2013-08-28 09:12:00,
2013-08-28 01:17:00,53.2,45.8,29.34,SE,135,5.5,5.5,76,0.00,,,0.00,WUHU216HW,2013-08-28 09:17:00,
2013-08-28 01:22:00,53.4,46.0,29.34,SE,135,2.6,7.3,76,0.00,,,0.00,WUHU216HW,2013-08-28 09:22:00,
2013-08-28 01:27:00,53.4,46.0,29.34,South,180,10.2,10.2,76,0.00,,,0.00,WUHU216HW,2013-08-28 09:27:00,
2013-08-28 01:32:00,53.4,46.0,29.34,SSW,203,5.1,10.2,76,0.00,,,0.00,WUHU216HW,2013-08-28 09:32:00,
2013-08-28 01:34:00,53.4,46.0,29.34,SE,135,3.5,10.2,76,0.00,,,0.00,WUHU216HW,2013-08-28 09:34:00,
2013-08-28 01:39:00,53.7,46.3,29.35,ESE,113,0.4,7.1,76,0.00,,,0.00,WUHU216HW,2013-08-28 09:39:00,
2013-08-28 01:44:00,53.7,46.3,29.35,ESE,113,0.0,3.3,76,0.00,,,0.00,WUHU216HW,2013-08-28 09:44:00,
2013-08-28 01:49:00,53.7,46.3,29.35,SSE,158,1.3,3.1,76,0.00,,,0.00,WUHU216HW,2013-08-28 09:49:00,
2013-08-28 01:54:00,53.6,46.2,29.35,SW,225,4.0,4.0,76,0.00,,,0.00,WUHU216HW,2013-08-28 09:54:00,
2013-08-28 01:59:00,53.4,46.0,29.35,South,180,4.2,4.2,76,0.00,,,0.00,WUHU216HW,2013-08-28 09:59:00,
2013-08-28 02:04:00,53.4,46.0,29.35,SSE,158,6.0,6.0,76,0.00,,,0.00,WUHU216HW,2013-08-28 10:04:00,
2013-08-28 02:09:00,52.8,45.5,29.35,ESE,113,6.7,6.7,76,0.00,,,0.00,WUHU216HW,2013-08-28 10:09:00,
2013-08-28 02:14:00,52.8,45.8,29.35,SSE,158,0.0,12.3,77,0.00,,,0.00,WUHU216HW,2013-08-28 10:14:00,
2013-08-28 02:19:00,52.7,45.6,29.34,South,180,3.3,12.3,77,0.00,,,0.00,WUHU216HW,2013-08-28 10:19:00,
2013-08-28 02:24:00,52.5,45.5,29.34,NNE,23,1.3,3.3,77,0.00,,,0.00,WUHU216HW,2013-08-28 10:24:00,
2013-08-28 02:29:00,52.5,45.5,29.34,SE,135,6.2,6.2,77,0.00,,,0.00,WUHU216HW,2013-08-28 10:29:00,
2013-08-28 02:34:00,52.3,45.6,29.34,SSE,158,0.0,6.2,78,0.00,,,0.00,WUHU216HW,2013-08-28 10:34:00,
2013-08-28 02:39:00,52.3,45.6,29.34,ESE,113,4.9,6.2,78,0.00,,,0.00,WUHU216HW,2013-08-28 10:39:00,
2013-08-28 02:44:00,52.5,45.8,29.34,SE,135,1.5,6.2,78,0.00,,,0.00,WUHU216HW,2013-08-28 10:44:00,
2013-08-28 02:49:00,52.7,46.0,29.34,SSE,158,3.8,4.9,78,0.00,,,0.00,WUHU216HW,2013-08-28 10:49:00,
2013-08-28 02:54:00,52.8,46.2,29.34,SSW,203,0.0,3.8,78,0.00,,,0.00,WUHU216HW,2013-08-28 10:54:00,
2013-08-28 02:59:00,52.8,46.2,29.34,SW,225,3.1,4.9,78,0.00,,,0.00,WUHU216HW,2013-08-28 10:59:00,
2013-08-28 03:04:00,52.8,46.2,29.34,SSE,158,2.0,4.9,78,0.00,,,0.00,WUHU216HW,2013-08-28 11:04:00,
2013-08-28 03:09:00,52.8,46.2,29.34,SW,225,1.3,5.3,78,0.00,,,0.00,WUHU216HW,2013-08-28 11:09:00,
2013-08-28 03:14:00,52.8,46.2,29.34,SE,135,3.1,5.3,78,0.00,,,0.00,WUHU216HW,2013-08-28 11:14:00,
2013-08-28 03:19:00,52.5,45.8,29.34,SSW,203,3.8,4.0,78,0.00,,,0.00,WUHU216HW,2013-08-28 11:19:00,
2013-08-28 03:24:00,52.3,45.6,29.34,SSE,158,0.6,3.8,78,0.00,,,0.00,WUHU216HW,2013-08-28 11:24:00,
2013-08-28 03:29:00,52.1,45.5,29.34,SSE,158,0.6,1.5,78,0.00,,,0.00,WUHU216HW,2013-08-28 11:29:00,
2013-08-28 03:34:00,51.8,45.1,29.34,South,180,4.2,4.2,78,0.00,,,0.00,WUHU216HW,2013-08-28 11:34:00,
2013-08-28 03:39:00,51.6,44.9,29.34,SE,135,5.5,5.5,78,0.00,,,0.00,WUHU216HW,2013-08-28 11:39:00,
2013-08-28 03:44:00,51.4,44.8,29.33,SE,135,3.3,5.5,78,0.00,,,0.00,WUHU216HW,2013-08-28 11:44:00,
2013-08-28 03:49:00,51.4,45.1,29.34,SE,135,3.5,6.7,79,0.00,,,0.00,WUHU216HW,2013-08-28 11:49:00,
2013-08-28 03:54:00,51.2,44.7,29.34,South,180,0.0,6.7,79,0.00,,,0.00,WUHU216HW,2013-08-28 11:54:00,
2013-08-28 03:59:00,51.0,44.7,29.34,SE,135,0.2,4.9,79,0.00,,,0.00,WUHU216HW,2013-08-28 11:59:00,
2013-08-28 04:04:00,50.9,44.6,29.34,SSE,158,0.0,0.6,79,0.00,,,0.00,WUHU216HW,2013-08-28 12:04:00,
2013-08-28 04:09:00,50.9,44.6,29.34,SSW,203,1.5,6.9,79,0.00,,,0.00,WUHU216HW,2013-08-28 12:09:00,
2013-08-28 04:14:00,50.7,44.4,29.34,SW,225,0.0,6.9,79,0.00,,,0.00,WUHU216HW,2013-08-28 12:14:00,
2013-08-28 04:19:00,50.7,44.4,29.34,South,180,0.8,3.3,79,0.00,,,0.00,WUHU216HW,2013-08-28 12:19:00,
2013-08-28 04:24:00,50.7,44.4,29.34,South,180,0.0,3.3,79,0.00,,,0.00,WUHU216HW,2013-08-28 12:24:00,
2013-08-28 04:29:00,50.9,44.6,29.33,South,180,0.0,3.1,79,0.00,,,0.00,WUHU216HW,2013-08-28 12:29:00,
2013-08-28 04:34:00,51.0,44.7,29.33,South,180,0.0,3.1,79,0.00,,,0.00,WUHU216HW,2013-08-28 12:34:00,
2013-08-28 04:39:00,51.2,44.9,29.34,SSE,158,0.0,4.2,79,0.00,,,0.00,WUHU216HW,2013-08-28 12:39:00,
2013-08-28 04:44:00,51.4,45.1,29.34,South,180,1.7,4.2,79,0.00,,,0.00,WUHU216HW,2013-08-28 12:44:00,
2013-08-28 04:49:00,51.6,44.9,29.33,SSE,158,2.9,5.3,78,0.00,,,0.00,WUHU216HW,2013-08-28 12:49:00,
2013-08-28 04:54:00,51.8,45.1,29.34,South,180,3.8,5.3,78,0.00,,,0.00,WUHU216HW,2013-08-28 12:54:00,
2013-08-28 04:59:00,51.9,44.9,29.33,SSW,203,0.8,3.8,77,0.00,,,0.00,WUHU216HW,2013-08-28 12:59:00,
2013-08-28 05:04:00,51.9,44.9,29.33,South,180,0.0,3.8,77,0.00,,,0.00,WUHU216HW,2013-08-28 13:04:00,
2013-08-28 05:09:00,51.9,44.9,29.33,SSE,158,2.4,4.4,77,0.00,,,0.00,WUHU216HW,2013-08-28 13:09:00,
2013-08-28 05:14:00,51.9,44.9,29.33,South,180,7.3,7.3,77,0.00,,,0.00,WUHU216HW,2013-08-28 13:14:00,
2013-08-28 05:19:00,52.1,45.1,29.33,SSE,158,0.6,7.3,77,0.00,,,0.00,WUHU216HW,2013-08-28 13:19:00,
2013-08-28 05:24:00,52.1,44.8,29.33,ESE,113,6.0,7.3,76,0.00,,,0.00,WUHU216HW,2013-08-28 13:24:00,
2013-08-28 05:29:00,52.1,44.8,29.33,SSE,158,4.4,6.4,76,0.00,,,0.00,WUHU216HW,2013-08-28 13:29:00,
2013-08-28 05:34:00,52.1,44.8,29.33,SSW,203,1.7,4.6,76,0.00,,,0.00,WUHU216HW,2013-08-28 13:34:00,
2013-08-28 05:39:00,52.1,44.8,29.33,SE,135,3.3,6.4,76,0.00,,,0.00,WUHU216HW,2013-08-28 13:39:00,
2013-08-28 05:44:00,52.1,44.8,29.33,SSE,158,1.3,6.4,76,0.00,,,0.00,WUHU216HW,2013-08-28 13:44:00,
2013-08-28 05:49:00,52.1,44.8,29.33,SSE,158,0.0,6.2,76,0.00,,,0.00,WUHU216HW,2013-08-28 13:49:00,
2013-08-28 05:54:00,52.1,44.8,29.33,South,180,1.1,2.4,76,0.00,,,0.00,WUHU216HW,2013-08-28 13:54:00,
2013-08-28 05:59:00,52.1,44.8,29.33,SE,135,2.0,2.4,76,0.00,,,0.00,WUHU216HW,2013-08-28 13:59:00,
2013-08-28 06:04:00,52.1,44.8,29.33,South,180,0.0,2.0,76,0.00,,,0.00,WUHU216HW,2013-08-28 14:04:00,
2013-08-28 06:09:00,51.9,44.6,29.32,South,180,0.0,2.0,76,0.00,,,0.00,WUHU216HW,2013-08-28 14:09:00,
2013-08-28 06:14:00,51.8,44.4,29.32,SSE,158,0.0,0.8,76,0.00,,,0.00,WUHU216HW,2013-08-28 14:14:00,
2013-08-28 06:19:00,51.6,44.3,29.32,SSE,158,0.8,0.8,76,0.00,,,0.00,WUHU216HW,2013-08-28 14:19:00,
2013-08-28 06:24:00,51.6,44.3,29.32,SSW,203,0.0,0.8,76,0.00,,,0.00,WUHU216HW,2013-08-28 14:24:00,
2013-08-28 06:29:00,51.6,44.3,29.32,South,180,0.0,0.0,76,0.00,,,0.00,WUHU216HW,2013-08-28 14:29:00,
2013-08-28 06:34:00,51.6,44.3,29.32,South,180,1.3,1.3,76,0.00,,,0.00,WUHU216HW,2013-08-28 14:34:00,
2013-08-28 06:39:00,51.6,44.3,29.32,SSW,203,0.6,1.5,76,0.00,,,0.00,WUHU216HW,2013-08-28 14:39:00,
2013-08-28 06:44:00,51.4,44.1,29.32,SSE,158,0.0,1.5,76,0.00,,,0.00,WUHU216HW,2013-08-28 14:44:00,
2013-08-28 06:49:00,51.4,44.1,29.32,SSE,158,0.0,0.0,76,0.00,,,0.00,WUHU216HW,2013-08-28 14:49:00,
2013-08-28 06:54:00,51.4,44.1,29.32,South,180,0.0,0.0,76,0.00,,,0.00,WUHU216HW,2013-08-28 14:54:00,
2013-08-28 06:59:00,51.4,44.4,29.32,South,180,0.0,0.0,77,0.00,,,0.00,WUHU216HW,2013-08-28 14:59:00,
2013-08-28 07:04:00,51.4,44.4,29.32,South,180,0.0,0.0,77,0.00,,,0.00,WUHU216HW,2013-08-28 15:04:00,
2013-08-28 07:09:00,51.2,44.2,29.32,South,180,0.0,0.0,77,0.00,,,0.00,WUHU216HW,2013-08-28 15:09:00,
2013-08-28 07:14:00,51.0,44.1,29.32,South,180,0.0,0.0,77,0.00,,,0.00,WUHU216HW,2013-08-28 15:14:00,
2013-08-28 07:19:00,50.9,43.9,29.32,South,180,0.0,0.0,77,0.00,,,0.00,WUHU216HW,2013-08-28 15:19:00,
2013-08-28 07:24:00,50.9,43.9,29.32,South,180,0.0,0.0,77,0.00,,,0.00,WUHU216HW,2013-08-28 15:24:00,
2013-08-28 07:29:00,50.7,43.7,29.32,South,180,0.0,0.0,77,0.00,,,0.00,WUHU216HW,2013-08-28 15:29:00,
2013-08-28 07:34:00,50.7,43.7,29.32,South,180,0.0,0.0,77,0.00,,,0.00,WUHU216HW,2013-08-28 15:34:00,
2013-08-28 07:39:00,50.7,43.7,29.32,South,180,0.0,0.0,77,0.00,,,0.00,WUHU216HW,2013-08-28 15:39:00,
2013-08-28 07:44:00,50.7,44.0,29.33,South,180,0.0,0.0,78,0.00,,,0.00,WUHU216HW,2013-08-28 15:44:00,
2013-08-28 07:49:00,50.5,43.9,29.33,South,180,0.0,0.0,78,0.00,,,0.00,WUHU216HW,2013-08-28 15:49:00,
2013-08-28 07:54:00,50.5,43.9,29.32,South,180,0.0,0.0,78,0.00,,,0.00,WUHU216HW,2013-08-28 15:54:00,
2013-08-28 07:59:00,50.5,43.9,29.32,South,180,0.0,0.0,78,0.00,,,0.00,WUHU216HW,2013-08-28 15:59:00,
2013-08-28 08:04:00,50.5,43.9,29.32,South,180,0.0,0.0,78,0.00,,,0.00,WUHU216HW,2013-08-28 16:04:00,
2013-08-28 08:09:00,50.5,44.2,29.32,South,180,0.0,0.0,79,0.00,,,0.00,WUHU216HW,2013-08-28 16:09:00,
2013-08-28 08:14:00,50.3,44.0,29.32,South,180,0.0,0.0,79,0.00,,,0.00,WUHU216HW,2013-08-28 16:14:00,
2013-08-28 08:19:00,50.5,44.2,29.32,South,180,0.0,0.0,79,0.00,,,0.00,WUHU216HW,2013-08-28 16:19:00,
2013-08-28 08:24:00,50.7,44.7,29.32,South,180,0.0,0.0,80,0.00,,,0.00,WUHU216HW,2013-08-28 16:24:00,
2013-08-28 08:29:00,50.7,44.7,29.32,South,180,0.0,0.0,80,0.00,,,0.00,WUHU216HW,2013-08-28 16:29:00,
2013-08-28 08:34:00,50.9,44.9,29.32,South,180,0.0,0.0,80,0.00,,,0.00,WUHU216HW,2013-08-28 16:34:00,
2013-08-28 08:39:00,50.9,44.9,29.32,South,180,0.0,0.0,80,0.00,,,0.00,WUHU216HW,2013-08-28 16:39:00,
2013-08-28 08:44:00,51.0,45.1,29.32,South,180,0.0,0.0,80,0.00,,,0.00,WUHU216HW,2013-08-28 16:44:00,
2013-08-28 08:49:00,51.0,45.1,29.32,South,180,0.0,0.0,80,0.00,,,0.00,WUHU216HW,2013-08-28 16:49:00,
2013-08-28 08:54:00,51.0,45.1,29.32,South,180,0.0,0.0,80,0.00,,,0.00,WUHU216HW,2013-08-28 16:54:00,
2013-08-28 08:59:00,51.2,45.3,29.32,South,180,0.0,0.0,80,0.00,,,0.00,WUHU216HW,2013-08-28 16:59:00,
2013-08-28 09:04:00,51.6,45.9,29.32,South,180,0.0,0.0,81,0.00,,,0.00,WUHU216HW,2013-08-28 17:04:00,
2013-08-28 09:09:00,51.9,46.1,29.32,South,180,0.0,0.0,81,0.00,,,0.00,WUHU216HW,2013-08-28 17:09:00,
2013-08-28 09:14:00,51.9,46.0,29.32,South,180,0.0,0.0,80,0.00,,,0.00,WUHU216HW,2013-08-28 17:14:00,
2013-08-28 09:19:00,52.1,46.2,29.31,South,180,0.0,0.0,80,0.00,,,0.00,WUHU216HW,2013-08-28 17:19:00,
2013-08-28 09:24:00,52.3,46.4,29.32,South,180,0.0,0.0,80,0.00,,,0.00,WUHU216HW,2013-08-28 17:24:00,
2013-08-28 09:29:00,52.7,46.7,29.31,South,180,0.0,0.0,80,0.00,,,0.00,WUHU216HW,2013-08-28 17:29:00,
2013-08-28 09:34:00,53.2,47.3,29.32,South,180,0.6,0.6,80,0.00,,,0.00,WUHU216HW,2013-08-28 17:34:00,
2013-08-28 09:39:00,54.1,48.1,29.31,South,180,0.0,0.6,80,0.00,,,0.00,WUHU216HW,2013-08-28 17:39:00,
2013-08-28 09:44:00,55.5,49.1,29.31,South,180,0.0,0.0,79,0.00,,,0.00,WUHU216HW,2013-08-28 17:44:00,
2013-08-28 09:49:00,56.4,49.2,29.32,South,180,0.0,0.0,77,0.00,,,0.00,WUHU216HW,2013-08-28 17:49:00,
2013-08-28 09:54:00,56.8,49.2,29.31,South,180,0.0,0.0,76,0.00,,,0.00,WUHU216HW,2013-08-28 17:54:00,
2013-08-28 09:59:00,57.5,50.0,29.31,South,180,0.0,0.0,76,0.00,,,0.00,WUHU216HW,2013-08-28 17:59:00,
2013-08-28 10:04:00,58.8,51.2,29.31,South,180,0.0,0.0,76,0.00,,,0.00,WUHU216HW,2013-08-28 18:04:00,
2013-08-28 10:09:00,61.3,51.6,29.31,South,180,0.0,0.0,72,0.00,,,0.00,WUHU216HW,2013-08-28 18:09:00,
2013-08-28 10:14:00,63.1,52.8,29.31,SSW,203,0.0,0.0,69,0.00,,,0.00,WUHU216HW,2013-08-28 18:14:00,
2013-08-28 10:19:00,64.0,51.9,29.31,SSW,203,0.6,0.6,65,0.00,,,0.00,WUHU216HW,2013-08-28 18:19:00,
2013-08-28 10:25:00,63.1,50.7,29.31,SSW,203,0.0,0.6,64,0.00,,,0.00,WUHU216HW,2013-08-28 18:25:00,
2013-08-28 10:30:00,62.7,50.3,29.31,SSW,203,0.0,0.0,64,0.00,,,0.00,WUHU216HW,2013-08-28 18:30:00,
2013-08-28 10:35:00,62.4,49.6,29.31,West,270,0.0,0.0,63,0.00,,,0.00,WUHU216HW,2013-08-28 18:35:00,
2013-08-28 10:40:00,62.0,49.3,29.31,WNW,293,0.0,0.0,63,0.00,,,0.00,WUHU216HW,2013-08-28 18:40:00,
2013-08-28 10:45:00,61.8,49.1,29.31,WNW,293,0.0,0.0,63,0.00,,,0.00,WUHU216HW,2013-08-28 18:45:00,
2013-08-28 10:50:00,61.5,48.9,29.31,WNW,293,0.0,0.0,63,0.00,,,0.00,WUHU216HW,2013-08-28 18:50:00,
2013-08-28 10:55:00,61.5,49.2,29.31,WNW,293,2.0,2.0,64,0.00,,,0.00,WUHU216HW,2013-08-28 18:55:00,
2013-08-28 11:00:00,61.8,49.1,29.30,NW,315,0.2,2.0,63,0.00,,,0.00,WUHU216HW,2013-08-28 19:00:00,
2013-08-28 11:05:00,61.5,48.4,29.30,WNW,293,0.0,2.0,62,0.00,,,0.00,WUHU216HW,2013-08-28 19:05:00,
2013-08-28 11:10:00,61.3,48.2,29.30,West,270,0.0,1.5,62,0.00,,,0.00,WUHU216HW,2013-08-28 19:10:00,
2013-08-28 11:15:00,61.3,48.2,29.30,North,0,0.0,1.1,62,0.00,,,0.00,WUHU216HW,2013-08-28 19:15:00,
2013-08-28 11:20:00,61.5,48.4,29.30,WNW,293,0.0,3.5,62,0.00,,,0.00,WUHU216HW,2013-08-28 19:20:00,
2013-08-28 11:25:00,61.5,48.4,29.30,WNW,293,1.7,3.5,62,0.00,,,0.00,WUHU216HW,2013-08-28 19:25:00,
2013-08-28 11:30:00,61.3,48.2,29.30,NNE,23,0.8,1.7,62,0.00,,,0.00,WUHU216HW,2013-08-28 19:30:00,
2013-08-28 11:35:00,61.1,48.0,29.29,NW,315,4.2,4.2,62,0.00,,,0.00,WUHU216HW,2013-08-28 19:35:00,
2013-08-28 11:40:00,61.1,48.0,29.30,NNW,338,0.0,4.2,62,0.00,,,0.00,WUHU216HW,2013-08-28 19:40:00,
2013-08-28 11:45:00,61.5,48.4,29.29,WNW,293,0.0,4.2,62,0.00,,,0.00,WUHU216HW,2013-08-28 19:45:00,
2013-08-28 11:50:00,62.7,49.5,29.29,WNW,293,0.0,1.3,62,0.00,,,0.00,WUHU216HW,2013-08-28 19:50:00,
2013-08-28 11:55:00,63.3,49.2,29.30,West,270,0.4,1.3,60,0.00,,,0.00,WUHU216HW,2013-08-28 19:55:00,
2013-08-28 12:00:00,63.5,48.8,29.30,WNW,293,0.0,0.4,59,0.00,,,0.00,WUHU216HW,2013-08-28 20:00:00,
2013-08-28 12:05:00,64.2,49.5,29.30,WNW,293,0.0,1.7,59,0.00,,,0.00,WUHU216HW,2013-08-28 20:05:00,
2013-08-28 12:10:00,64.2,49.5,29.29,WNW,293,0.0,1.7,59,0.00,,,0.00,WUHU216HW,2013-08-28 20:10:00,
2013-08-28 12:15:00,64.0,49.3,29.29,NW,315,0.0,1.1,59,0.00,,,0.00,WUHU216HW,2013-08-28 20:15:00,
2013-08-28 12:20:00,64.0,49.3,29.29,NW,315,0.0,1.1,59,0.00,,,0.00,WUHU216HW,2013-08-28 20:20:00,
2013-08-28 12:25:00,64.0,49.3,29.29,NW,315,0.0,0.8,59,0.00,,,0.00,WUHU216HW,2013-08-28 20:25:00,
2013-08-28 12:30:00,64.2,49.5,29.29,NW,315,0.8,0.8,59,0.00,,,0.00,WUHU216HW,2013-08-28 20:30:00,
2013-08-28 12:35:00,64.9,49.7,29.29,WNW,293,0.0,3.1,58,0.00,,,0.00,WUHU216HW,2013-08-28 20:35:00,
2013-08-28 12:40:00,65.1,49.9,29.29,North,0,0.0,3.1,58,0.00,,,0.00,WUHU216HW,2013-08-28 20:40:00,
2013-08-28 12:45:00,65.1,49.9,29.29,WNW,293,0.0,5.1,58,0.00,,,0.00,WUHU216HW,2013-08-28 20:45:00,
2013-08-28 12:50:00,65.6,49.9,29.29,WNW,293,0.0,5.1,57,0.00,,,0.00,WUHU216HW,2013-08-28 20:50:00,
2013-08-28 12:55:00,66.3,50.6,29.29,WNW,293,0.0,2.2,57,0.00,,,0.00,WUHU216HW,2013-08-28 20:55:00,
2013-08-28 13:00:00,66.3,50.1,29.29,NW,315,0.0,1.5,56,0.00,,,0.00,WUHU216HW,2013-08-28 21:00:00,
2013-08-28 13:05:00,66.3,50.1,29.29,NW,315,4.9,4.9,56,0.00,,,0.00,WUHU216HW,2013-08-28 21:05:00,
2013-08-28 13:10:00,66.0,49.8,29.29,WNW,293,0.0,4.9,56,0.00,,,0.00,WUHU216HW,2013-08-28 21:10:00,
2013-08-28 13:15:00,65.4,49.3,29.29,WNW,293,0.6,4.9,56,0.00,,,0.00,WUHU216HW,2013-08-28 21:15:00,
2013-08-28 13:20:00,65.1,49.4,29.29,WNW,293,0.0,0.8,57,0.00,,,0.00,WUHU216HW,2013-08-28 21:20:00,
2013-08-28 13:25:00,65.8,50.6,29.28,WNW,293,0.8,3.8,58,0.00,,,0.00,WUHU216HW,2013-08-28 21:25:00,
2013-08-28 13:30:00,66.9,51.1,29.28,WNW,293,0.0,3.8,57,0.00,,,0.00,WUHU216HW,2013-08-28 21:30:00,
2013-08-28 13:35:00,69.4,52.0,29.28,North,0,1.3,1.7,54,0.00,,,0.00,WUHU216HW,2013-08-28 21:35:00,
2013-08-28 13:40:00,69.9,52.5,29.28,West,270,0.0,1.7,54,0.00,,,0.00,WUHU216HW,2013-08-28 21:40:00,
2013-08-28 13:45:00,70.5,52.5,29.28,NW,315,1.1,1.3,53,0.00,,,0.00,WUHU216HW,2013-08-28 21:45:00,
2013-08-28 13:50:00,70.1,51.6,29.28,NW,315,0.0,1.3,52,0.00,,,0.00,WUHU216HW,2013-08-28 21:50:00,
2013-08-28 13:55:00,69.9,52.0,29.28,WNW,293,0.0,1.3,53,0.00,,,0.00,WUHU216HW,2013-08-28 21:55:00,
2013-08-28 14:00:00,69.8,51.8,29.28,North,0,0.4,0.4,53,0.00,,,0.00,WUHU216HW,2013-08-28 22:00:00,
2013-08-28 14:05:00,69.0,51.1,29.28,NW,315,0.6,0.6,53,0.00,,,0.00,WUHU216HW,2013-08-28 22:05:00,
2013-08-28 14:10:00,68.1,49.8,29.27,WNW,293,0.0,2.6,52,0.00,,,0.00,WUHU216HW,2013-08-28 22:10:00,
2013-08-28 14:15:00,67.4,49.7,29.27,West,270,0.2,2.6,53,0.00,,,0.00,WUHU216HW,2013-08-28 22:15:00,
2013-08-28 14:20:00,66.5,49.3,29.27,North,0,0.0,0.2,54,0.00,,,0.00,WUHU216HW,2013-08-28 22:20:00,
2013-08-28 14:25:00,66.0,49.3,29.27,WNW,293,1.3,1.3,55,0.00,,,0.00,WUHU216HW,2013-08-28 22:25:00,
2013-08-28 14:30:00,65.3,49.1,29.28,WNW,293,0.0,1.3,56,0.00,,,0.00,WUHU216HW,2013-08-28 22:30:00,
2013-08-28 14:35:00,64.5,48.9,29.27,NW,315,1.5,1.5,57,0.00,,,0.00,WUHU216HW,2013-08-28 22:35:00,
2013-08-28 14:40:00,64.2,48.5,29.27,NW,315,0.0,1.5,57,0.00,,,0.00,WUHU216HW,2013-08-28 22:40:00,
2013-08-28 14:45:00,64.0,49.3,29.27,WNW,293,0.0,1.5,59,0.00,,,0.00,WUHU216HW,2013-08-28 22:45:00,
2013-08-28 14:50:00,64.0,49.8,29.27,WNW,293,0.0,0.6,60,0.00,,,0.00,WUHU216HW,2013-08-28 22:50:00,
2013-08-28 14:55:00,64.9,51.1,29.27,WNW,293,2.4,2.4,61,0.00,,,0.00,WUHU216HW,2013-08-28 22:55:00,
2013-08-28 15:00:00,65.8,51.6,29.27,North,0,4.9,4.9,60,0.00,,,0.00,WUHU216HW,2013-08-28 23:00:00,
2013-08-28 15:05:00,66.5,51.8,29.27,NNW,338,0.0,4.9,59,0.00,,,0.00,WUHU216HW,2013-08-28 23:05:00,
2013-08-28 15:10:00,67.2,51.9,29.27,WNW,293,1.1,1.3,58,0.00,,,0.00,WUHU216HW,2013-08-28 23:10:00,
2013-08-28 15:15:00,67.2,51.4,29.27,WNW,293,0.0,1.3,57,0.00,,,0.00,WUHU216HW,2013-08-28 23:15:00,
2013-08-28 15:20:00,66.7,51.0,29.26,North,0,0.0,2.2,57,0.00,,,0.00,WUHU216HW,2013-08-28 23:20:00,
2013-08-28 15:25:00,66.3,50.6,29.26,North,0,0.0,2.2,57,0.00,,,0.00,WUHU216HW,2013-08-28 23:25:00,
2013-08-28 15:30:00,66.0,50.3,29.26,NW,315,0.0,0.6,57,0.00,,,0.00,WUHU216HW,2013-08-28 23:30:00,
2013-08-28 15:35:00,65.8,50.6,29.27,NNW,338,0.0,0.6,58,0.00,,,0.00,WUHU216HW,2013-08-28 23:35:00,
2013-08-28 15:40:00,65.3,50.1,29.26,NW,315,0.0,0.6,58,0.00,,,0.00,WUHU216HW,2013-08-28 23:40:00,
2013-08-28 15:45:00,64.9,49.7,29.26,NW,315,0.0,0.0,58,0.00,,,0.00,WUHU216HW,2013-08-28 23:45:00,
2013-08-28 15:50:00,64.4,49.2,29.26,NW,315,0.0,0.0,58,0.00,,,0.00,WUHU216HW,2013-08-28 23:50:00,
2013-08-28 15:55:00,64.2,49.5,29.26,WNW,293,0.0,0.0,59,0.00,,,0.00,WUHU216HW,2013-08-28 23:55:00,
2013-08-28 16:00:00,63.6,49.0,29.26,NW,315,0.0,1.1,59,0.00,,,0.00,WUHU216HW,2013-08-29 00:00:00,
2013-08-28 16:05:00,63.1,49.0,29.26,WNW,293,3.1,3.1,60,0.00,,,0.00,WUHU216HW,2013-08-29 00:05:00,
2013-08-28 16:10:00,62.9,48.8,29.26,NW,315,0.0,3.1,60,0.00,,,0.00,WUHU216HW,2013-08-29 00:10:00,
2013-08-28 16:15:00,62.4,49.2,29.25,NW,315,2.0,3.1,62,0.00,,,0.00,WUHU216HW,2013-08-29 00:15:00,
2013-08-28 16:20:00,62.0,49.3,29.25,NW,315,0.0,2.2,63,0.00,,,0.00,WUHU216HW,2013-08-29 00:20:00,
2013-08-28 16:25:00,61.7,49.4,29.24,NW,315,0.8,2.2,64,0.00,,,0.00,WUHU216HW,2013-08-29 00:25:00,
2013-08-28 16:30:00,61.7,49.4,29.24,WNW,293,0.0,1.7,64,0.00,,,0.00,WUHU216HW,2013-08-29 00:30:00,
2013-08-28 16:35:00,61.5,49.6,29.24,North,0,0.0,0.8,65,0.00,,,0.00,WUHU216HW,2013-08-29 00:35:00,
2013-08-28 16:40:00,61.5,50.0,29.24,NNW,338,0.0,0.8,66,0.00,,,0.00,WUHU216HW,2013-08-29 00:40:00,
2013-08-28 16:45:00,61.7,50.2,29.24,WNW,293,0.0,0.0,66,0.00,,,0.00,WUHU216HW,2013-08-29 00:45:00,
2013-08-28 16:50:00,61.8,50.3,29.23,WNW,293,0.6,0.6,66,0.00,,,0.00,WUHU216HW,2013-08-29 00:50:00,
2013-08-28 16:55:00,62.2,50.7,29.23,NW,315,0.0,0.6,66,0.00,,,0.00,WUHU216HW,2013-08-29 00:55:00,
2013-08-28 17:00:00,62.2,50.7,29.23,WNW,293,0.0,0.6,66,0.00,,,0.00,WUHU216HW,2013-08-29 01:00:00,
2013-08-28 17:05:00,62.2,50.3,29.23,North,0,5.5,5.5,65,0.00,,,0.00,WUHU216HW,2013-08-29 01:05:00,
2013-08-28 17:10:00,62.2,50.3,29.23,NNW,338,0.8,5.5,65,0.00,,,0.00,WUHU216HW,2013-08-29 01:10:00,
2013-08-28 17:15:00,62.0,50.3,29.22,North,0,2.2,5.5,65,0.00,,,0.00,WUHU216HW,2013-08-29 01:15:00,
2013-08-28 17:20:00,61.8,49.9,29.22,NW,315,0.0,3.8,65,0.00,,,0.00,WUHU216HW,2013-08-29 01:20:00,
2013-08-28 17:25:00,61.7,49.8,29.22,WNW,293,0.0,2.6,65,0.00,,,0.00,WUHU216HW,2013-08-29 01:25:00,
2013-08-28 17:30:00,61.7,49.8,29.21,NNW,338,0.0,0.6,65,0.00,,,0.00,WUHU216HW,2013-08-29 01:30:00,
2013-08-28 17:35:00,61.5,49.6,29.21,North,0,0.0,2.6,65,0.00,,,0.00,WUHU216HW,2013-08-29 01:35:00,
2013-08-28 17:40:00,61.3,49.4,29.21,ENE,68,0.0,3.5,65,0.00,,,0.00,WUHU216HW,2013-08-29 01:40:00,
2013-08-28 17:45:00,60.9,49.1,29.21,NW,315,0.0,3.5,65,0.00,,,0.00,WUHU216HW,2013-08-29 01:45:00,
2013-08-28 17:50:00,60.6,49.2,29.21,NNW,338,1.5,2.4,66,0.00,,,0.00,WUHU216HW,2013-08-29 01:50:00,
2013-08-28 17:55:00,60.4,49.0,29.21,North,0,1.5,2.4,66,0.00,,,0.00,WUHU216HW,2013-08-29 01:55:00,
2013-08-28 18:00:00,60.0,48.8,29.21,North,0,0.0,1.5,66,0.00,,,0.00,WUHU216HW,2013-08-29 02:00:00,
2013-08-28 18:05:00,59.9,48.9,29.21,North,0,2.4,2.4,67,0.00,,,0.00,WUHU216HW,2013-08-29 02:05:00,
2013-08-28 18:10:00,59.7,48.7,29.20,North,0,0.0,2.4,67,0.00,,,0.00,WUHU216HW,2013-08-29 02:10:00,
2013-08-28 18:15:00,59.5,48.9,29.20,North,0,0.0,2.4,68,0.00,,,0.00,WUHU216HW,2013-08-29 02:15:00,
2013-08-28 18:20:00,59.1,48.6,29.21,North,0,5.5,5.5,68,0.00,,,0.00,WUHU216HW,2013-08-29 02:20:00,
2013-08-28 18:25:00,59.1,49.0,29.21,North,0,1.1,5.5,69,0.00,,,0.00,WUHU216HW,2013-08-29 02:25:00,
2013-08-28 18:30:00,58.8,48.6,29.20,NNE,23,4.2,5.5,69,0.00,,,0.00,WUHU216HW,2013-08-29 02:30:00,
2013-08-28 18:35:00,58.8,49.1,29.20,North,0,2.9,5.5,70,0.00,,,0.00,WUHU216HW,2013-08-29 02:35:00,
2013-08-28 18:40:00,58.6,49.2,29.20,NNW,338,0.0,5.5,71,0.00,,,0.00,WUHU216HW,2013-08-29 02:40:00,
2013-08-28 18:45:00,58.6,49.1,29.20,North,0,7.3,7.3,71,0.00,,,0.00,WUHU216HW,2013-08-29 02:45:00,
2013-08-28 18:50:00,58.2,49.2,29.19,NNE,23,1.7,7.3,72,0.00,,,0.00,WUHU216HW,2013-08-29 02:50:00,
2013-08-28 18:55:00,58.2,49.2,29.19,NNE,23,0.0,6.9,72,0.00,,,0.00,WUHU216HW,2013-08-29 02:55:00,
2013-08-28 19:00:00,58.2,49.1,29.19,North,0,1.1,6.9,72,0.00,,,0.00,WUHU216HW,2013-08-29 03:00:00,
2013-08-28 19:05:00,58.1,49.1,29.19,North,0,7.6,7.6,72,0.00,,,0.00,WUHU216HW,2013-08-29 03:05:00,
2013-08-28 19:10:00,57.9,48.9,29.19,NNE,23,5.3,7.6,72,0.00,,,0.00,WUHU216HW,2013-08-29 03:10:00,
2013-08-28 19:15:00,57.9,48.9,29.18,NNW,338,6.2,7.6,72,0.00,,,0.00,WUHU216HW,2013-08-29 03:15:00,
2013-08-28 19:20:00,57.7,49.1,29.18,NNW,338,0.0,6.2,73,0.00,,,0.00,WUHU216HW,2013-08-29 03:20:00,
2013-08-28 19:25:00,57.5,48.9,29.18,North,0,6.2,6.2,73,0.00,,,0.00,WUHU216HW,2013-08-29 03:25:00,
2013-08-28 19:30:00,57.3,48.7,29.18,NNE,23,1.5,6.2,73,0.00,,,0.00,WUHU216HW,2013-08-29 03:30:00,
2013-08-28 19:35:00,57.3,49.1,29.18,North,0,1.1,4.4,74,0.00,,,0.00,WUHU216HW,2013-08-29 03:35:00,
2013-08-28 19:40:00,57.3,49.1,29.18,North,0,0.0,4.4,74,0.00,,,0.00,WUHU216HW,2013-08-29 03:40:00,
2013-08-28 19:45:00,57.0,48.7,29.18,NNE,23,0.6,2.6,74,0.00,,,0.00,WUHU216HW,2013-08-29 03:45:00,
2013-08-28 19:50:00,57.0,48.7,29.18,ENE,68,0.0,2.4,74,0.00,,,0.00,WUHU216HW,2013-08-29 03:50:00,
2013-08-28 19:55:00,57.0,49.1,29.18,NNE,23,2.9,2.9,75,0.00,,,0.00,WUHU216HW,2013-08-29 03:55:00,
2013-08-28 20:00:00,56.4,48.9,29.18,NNE,23,1.7,2.9,75,0.00,,,0.00,WUHU216HW,2013-08-29 04:00:00,
2013-08-28 20:01:00,56.4,48.9,29.18,NNE,23,6.4,6.4,76,0.00,,,0.00,WUHU216HW,2013-08-29 04:01:00,
2013-08-28 20:06:00,56.3,49.1,29.18,North,0,0.0,6.4,77,0.00,,,0.00,WUHU216HW,2013-08-29 04:06:00,
2013-08-28 20:11:00,55.9,49.1,29.18,NNE,23,0.0,6.4,78,0.00,,,0.00,WUHU216HW,2013-08-29 04:11:00,
2013-08-28 20:16:00,55.5,48.7,29.18,ENE,68,0.0,5.5,78,0.00,,,0.00,WUHU216HW,2013-08-29 04:16:00,
2013-08-28 20:21:00,55.2,48.7,29.18,NNE,23,4.2,4.2,79,0.00,,,0.00,WUHU216HW,2013-08-29 04:21:00,
2013-08-28 20:26:00,55.0,48.9,29.19,North,0,3.3,4.2,80,0.00,,,0.00,WUHU216HW,2013-08-29 04:26:00,
2013-08-28 20:31:00,54.8,48.7,29.19,NE,45,0.0,4.2,80,0.00,,,0.00,WUHU216HW,2013-08-29 04:31:00,
2013-08-28 20:36:00,54.6,48.9,29.19,NE,45,0.0,3.3,81,0.00,,,0.00,WUHU216HW,2013-08-29 04:36:00,
2013-08-28 20:42:00,54.5,48.7,29.18,ENE,68,0.0,0.0,81,0.00,,,0.00,WUHU216HW,2013-08-29 04:42:00,
2013-08-28 20:48:00,54.5,48.7,29.18,NE,45,0.0,0.0,81,0.00,,,0.00,WUHU216HW,2013-08-29 04:48:00,
2013-08-28 20:53:00,54.3,48.6,29.18,NE,45,0.0,0.0,81,0.00,,,0.00,WUHU216HW,2013-08-29 04:53:00,
2013-08-28 20:58:00,54.3,48.6,29.18,NNE,23,0.0,0.0,81,0.00,,,0.00,WUHU216HW,2013-08-29 04:58:00,
2013-08-28 21:03:00,54.3,48.9,29.17,NE,45,0.0,0.0,82,0.00,,,0.00,WUHU216HW,2013-08-29 05:03:00,
2013-08-28 21:08:00,54.3,48.9,29.17,NE,45,0.0,0.0,82,0.00,,,0.00,WUHU216HW,2013-08-29 05:08:00,
2013-08-28 21:09:00,54.3,48.9,29.17,NE,45,0.0,0.0,82,0.00,,,0.00,WUHU216HW,2013-08-29 05:09:00,
2013-08-28 21:16:00,54.1,48.7,29.17,NE,45,0.0,0.0,82,0.00,,,0.00,WUHU216HW,2013-08-29 05:16:00,
2013-08-28 21:22:00,54.1,49.0,29.17,NNE,23,0.0,1.3,83,0.00,,,0.00,WUHU216HW,2013-08-29 05:22:00,
2013-08-28 21:28:00,53.9,48.9,29.16,NNE,23,0.0,1.3,83,0.00,,,0.00,WUHU216HW,2013-08-29 05:28:00,
2013-08-28 21:35:00,53.7,48.7,29.16,NE,45,0.0,0.0,83,0.00,,,0.00,WUHU216HW,2013-08-29 05:35:00,
2013-08-28 21:41:00,53.7,48.7,29.16,NNE,23,0.0,1.5,83,0.00,,,0.00,WUHU216HW,2013-08-29 05:41:00,
2013-08-28 21:47:00,53.4,48.7,29.16,NNE,23,0.0,2.2,84,0.00,,,0.00,WUHU216HW,2013-08-29 05:47:00,
2013-08-28 22:00:00,53.4,48.7,29.16,NNE,23,0.0,1.1,84,0.00,,,0.00,WUHU216HW,2013-08-29 06:00:00,
2013-08-28 22:06:00,53.4,49.0,29.16,NE,45,0.0,1.3,85,0.00,,,0.00,WUHU216HW,2013-08-29 06:06:00,
2013-08-28 22:11:00,53.2,48.8,29.16,NNE,23,0.0,1.3,85,0.00,,,0.00,WUHU216HW,2013-08-29 06:11:00,
2013-08-28 22:16:00,53.2,48.8,29.16,NE,45,0.0,0.0,85,0.00,,,0.00,WUHU216HW,2013-08-29 06:16:00,
2013-08-28 22:21:00,53.2,48.8,29.16,NE,45,0.8,0.8,85,0.00,,,0.00,WUHU216HW,2013-08-29 06:21:00,
2013-08-28 22:26:00,53.2,49.1,29.17,NNE,23,1.3,1.3,86,0.00,,,0.00,WUHU216HW,2013-08-29 06:26:00,
2013-08-28 22:31:00,53.2,49.1,29.17,NNE,23,0.0,1.3,86,0.00,,,0.00,WUHU216HW,2013-08-29 06:31:00,
2013-08-28 22:36:00,53.2,49.1,29.16,NNE,23,0.0,1.3,86,0.00,,,0.00,WUHU216HW,2013-08-29 06:36:00,
2013-08-28 22:41:00,52.8,49.0,29.16,North,0,3.5,3.5,87,0.00,,,0.00,WUHU216HW,2013-08-29 06:41:00,
2013-08-28 22:46:00,52.8,49.0,29.16,North,0,5.3,5.3,87,0.00,,,0.00,WUHU216HW,2013-08-29 06:46:00,
2013-08-28 22:51:00,52.8,49.0,29.16,NNE,23,0.0,5.3,87,0.00,,,0.00,WUHU216HW,2013-08-29 06:51:00,
2013-08-28 22:56:00,52.8,49.3,29.16,North,0,0.0,5.3,88,0.00,,,0.00,WUHU216HW,2013-08-29 06:56:00,
2013-08-28 23:01:00,52.7,49.2,29.16,North,0,6.2,6.2,88,0.00,,,0.00,WUHU216HW,2013-08-29 07:01:00,
2013-08-28 23:06:00,52.7,49.2,29.16,NNE,23,0.4,6.2,88,0.00,,,0.00,WUHU216HW,2013-08-29 07:06:00,
2013-08-28 23:11:00,52.5,49.0,29.16,NNE,23,0.0,4.0,88,0.00,,,0.00,WUHU216HW,2013-08-29 07:11:00,
2013-08-28 23:16:00,52.5,49.3,29.16,NNE,23,1.1,4.0,89,0.00,,,0.00,WUHU216HW,2013-08-29 07:16:00,
2013-08-28 23:21:00,52.5,49.3,29.16,North,0,0.4,1.1,89,0.00,,,0.00,WUHU216HW,2013-08-29 07:21:00,
2013-08-28 23:26:00,52.3,49.1,29.15,NNE,23,4.6,4.6,89,0.02,,,0.00,WUHU216HW,2013-08-29 07:26:00,
2013-08-28 23:31:00,52.3,49.1,29.15,NE,45,3.1,4.6,89,0.02,,,0.02,WUHU216HW,2013-08-29 07:31:00,
2013-08-28 23:36:00,52.3,49.1,29.15,North,0,2.2,6.4,89,0.02,,,0.02,WUHU216HW,2013-08-29 07:36:00,
2013-08-28 23:41:00,52.3,49.1,29.15,NNE,23,0.0,6.4,89,0.02,,,0.02,WUHU216HW,2013-08-29 07:41:00,
2013-08-28 23:46:00,52.3,49.1,29.15,NNE,23,5.1,5.1,89,0.02,,,0.02,WUHU216HW,2013-08-29 07:46:00,
2013-08-28 23:51:00,52.3,49.1,29.15,NNE,23,0.0,5.1,89,0.02,,,0.02,WUHU216HW,2013-08-29 07:51:00,
2013-08-28 23:56:00,52.3,49.4,29.15,North,0,6.4,6.4,90,0.02,,,0.02,WUHU216HW,2013-08-29 07:56:00,